Aeroporto :
LOGIN :

Iscrizione | Disclaimer

   EN    FR    IT 

 










Sommario :    VFR   VFR Marginale   IFR   IFR Intensivo   IFR Molto Intensivo
Visibilità : 
Base nubi : 
>= 8 km
>= 3000ft
5 / 8 km
1000 / 3000 ft
1500m / 5 km
500 / 1000 ft
800 / 1500m
200 / 500 ft
< 800m
< 200 ft
Simboli :   Temporali  Nebbia  Neve Forte  Precipitazioni Forti  Vento > 20 kt
SIGMETs :   Varie  Temporali  Ghiacco  Turbolenza  Onda orograficha  Ceneri Vulcaniche






- Altitudine del aeroporto : 436 ft
- Codice IATA : ANG


LFBU - Angoulême Brie Champniers

ULTIMO METAR :
  • 250630Z AUTO 22008KT 180V250 2900 -RA BR OVC003 10/09 Q1015 BECMG 9999 NSW BKN020

METARs OBSOLETI :
  • 250600Z AUTO 20009KT 170V230 9999 -RA OVC004 09/09 Q1015 TEMPO 4000 RA
  • 250530Z AUTO 20007KT 170V250 8000 -RA OVC005 09/08 Q1015
  • 250500Z AUTO 21010KT 180V240 6000 -RA OVC008 09/08 Q1015
  • 250430Z AUTO 21009KT 170V240 9999 BKN012 BKN021 BKN034 10/08 Q1016
  • 250400Z AUTO 21009KT 180V240 9999 BKN010 OVC014 09/08 Q1016

TAF TAF LFBU
Valido dal 25 a 06 ore il 26 a 06 ore UTC


250500Z 2506/2606 21010KT 9999 OVC008
TEMPO 2506/2508 4000 RA OVC004
BECMG 2508/2510 27010KT BKN020
BECMG 2512/2514 27015G25KT
TEMPO 2514/2606 4000 SHRA BKN020TCU



MetMap, La meteo Aeronautica in un colpo d'occhio ! - Copyright ORBIFLY Dicembre 2007 - Disclaimer

ORBIFLY MET'MAP TEAM :

Programmazione e sviluppo : Alexandra Zaïnal
Concezione : Baudouin d'Aumeries
Aiuto per la programmazione : Marc-Olivier Méhu
Supporto tecnico e logistico : Manuel Goepfert
Aiuto per la traduzione : Arnaldo La Scala

Contatto : metmap@orbifly.com




FONTI E CREDITI :

   NOAA